EGSS - Stansted Airport
Distance from station: E 5mi, 14km
Updated: 12/15/2017 9:20am
Overcast
Overcast
 Wind from NNW
Wind: NNW 13 mph , 20 km/h
Temperature: 39°F , 4°C
Wind Chill: 31°F , -1°C
Dew Point: 36°F , 2°C
Humidity: 87%
Barometer: 29.62 inHg , 1003 hPa
Clouds: Overcast
Visibility: 6 miles , 10 km
Cloud details: Mostly Cloudy 1200 ft
Overcast 2400 ft
2017/12/15 17:20 EGSS 151720Z AUTO 33011KT 9999 BKN012 OVC024 04/02 Q1003